Home   Weather   India   Tiruchirappalli   Past weeks
Flag for India

Past Weather in Tiruchirappalli, Tamil Nadu, India — Yesterday and Last 2 Weeks

Currently: 100 °F. Passing clouds. (Weather station: Tiruchchirapalli, India). See more current weather

Past Weather in Tiruchirappalli — Graph

°F

Tiruchirappalli Temperature Yesterday

Maximum temperature yesterday: 102 °F (at 3:00 pm)
Minimum temperature yesterday: 82 °F (at 4:30 am)
Average temperature yesterday: 93 °F

High & Low Weather Summary for the Past Weeks

 TemperatureHumidityPressure
High102 °F (Jun 7, 4:30 pm)89% (Jun 7, 5:30 am)29.89 "Hg (Jun 7, 5:30 am)
Low81 °F (Jun 7, 5:30 am)27% (Jun 20, 3:00 pm)29.59 "Hg (Jun 15, 3:30 pm)
Average90 °F52%29.73 "Hg
* Reported Jun 6 3:30 pm — Jun 21 4:00 pm, Tiruchirappalli. Weather by CustomWeather, © 2021

Note: Actual official high and low records may vary slightly from our data, if they occured in-between our weather recording intervals... More about our weather records

Tiruchirappalli Weather History for the Previous 24 Hours

Scroll right to see more
 ConditionsComfort  
Time TempWeatherWind HumidityBarometerVisibility
4:00 pm
Mon, Jun 21
102 °FExtremely hot.12 mph29%29.68 "HgN/A
3:30 pm102 °FPassing clouds.6 mph33%29.68 "Hg4 mi
3:00 pm102 °FPassing clouds.7 mph33%29.71 "Hg4 mi
2:30 pm102 °FPassing clouds.12 mph33%29.71 "Hg4 mi
2:00 pm100 °FPassing clouds.9 mph33%29.74 "Hg4 mi
1:30 pm99 °FHaze.14 mph35%29.74 "Hg3 mi
1:00 pm99 °FHaze.13 mph37%29.74 "Hg3 mi
12:00 pm97 °FHaze.13 mph39%29.77 "Hg3 mi
11:30 am97 °FHaze.12 mph39%29.80 "Hg3 mi
11:00 am95 °FHaze.14 mph44%29.80 "Hg3 mi
10:30 am93 °FHaze.15 mph47%29.83 "Hg3 mi
10:00 am91 °FHaze.16 mph49%29.83 "Hg2 mi
9:30 am91 °FHaze.12 mph49%29.83 "Hg2 mi
9:00 am90 °FHaze.12 mph52%29.83 "Hg2 mi
8:30 am88 °FHaze.12 mph59%29.83 "Hg2 mi
8:00 am86 °FHaze.12 mph62%29.83 "Hg2 mi
7:30 am84 °FHaze.12 mph66%29.83 "Hg2 mi
6:30 am82 °FHaze.6 mph70%29.80 "Hg2 mi
5:30 am81 °FHaze.7 mph74%29.80 "Hg3 mi
4:30 am81 °FHaze.7 mph70%29.77 "Hg3 mi
2:30 am84 °FHaze.7 mph62%29.80 "Hg3 mi
1:30 am84 °FPassing clouds.5 mph62%29.83 "Hg3 mi
12:30 am86 °FPassing clouds.6 mph62%29.83 "Hg3 mi
11:30 pm
Sun, Jun 20
86 °FPassing clouds.2 mph62%29.83 "Hg3 mi
10:30 pm86 °FPassing clouds.3 mph55%29.83 "Hg3 mi
10:00 pm88 °FPassing clouds.3 mph52%29.83 "Hg3 mi
9:30 pm88 °FPassing clouds.5 mph52%29.83 "Hg3 mi
9:00 pm90 °FPassing clouds.5 mph46%29.80 "Hg3 mi
8:30 pm91 °FHaze.6 mph44%29.80 "Hg3 mi
8:00 pm91 °FPassing clouds.9 mph44%29.77 "Hg4 mi
7:30 pm93 °FPassing clouds.10 mph41%29.77 "Hg4 mi
7:00 pm95 °FPassing clouds.13 mph36%29.77 "Hg4 mi
6:30 pm97 °FPassing clouds.12 mph34%29.74 "Hg4 mi
6:00 pm99 °FPassing clouds.13 mph33%29.74 "Hg4 mi
5:30 pm99 °FPassing clouds.16 mph31%29.74 "Hg4 mi
5:00 pm99 °FPassing clouds.12 mph33%29.74 "Hg4 mi
Weather by CustomWeather, © 2021

See weather overview